sensor_id;sensor_type;location;lat;lon;timestamp;pressure;altitude;pressure_sealevel;temperature;humidity
19890;BME280;10107;51.198;6.824;2023-12-14T00:03:02;-21513.16;;;7.36;100.00
19890;BME280;10107;51.198;6.824;2023-12-14T00:07:04;-21512.91;;;7.34;100.00
19890;BME280;10107;51.198;6.824;2023-12-14T00:11:06;-21512.78;;;7.34;100.00
19890;BME280;10107;51.198;6.824;2023-12-14T00:15:10;-21512.25;;;7.32;100.00
19890;BME280;10107;51.198;6.824;2023-12-14T00:19:12;-21511.97;;;7.31;100.00
19890;BME280;10107;51.198;6.824;2023-12-14T00:23:13;-21510.91;;;7.27;100.00
19890;BME280;10107;51.198;6.824;2023-12-14T00:27:15;-21510.91;;;7.27;100.00
19890;BME280;10107;51.198;6.824;2023-12-14T00:31:18;-21510.91;;;7.27;100.00
19890;BME280;10107;51.198;6.824;2023-12-14T00:35:20;-21511.16;;;7.28;100.00
19890;BME280;10107;51.198;6.824;2023-12-14T00:39:22;-21511.31;;;7.28;100.00
19890;BME280;10107;51.198;6.824;2023-12-14T00:43:23;-21511.72;;;7.30;100.00
19890;BME280;10107;51.198;6.824;2023-12-14T00:47:26;-21511.84;;;7.30;100.00
19890;BME280;10107;51.198;6.824;2023-12-14T00:51:28;-21512.09;;;7.31;100.00
19890;BME280;10107;51.198;6.824;2023-12-14T00:55:30;-21512.50;;;7.33;100.00
19890;BME280;10107;51.198;6.824;2023-12-14T00:59:31;-21512.63;;;7.33;100.00
19890;BME280;10107;51.198;6.824;2023-12-14T01:03:34;-21512.91;;;7.34;100.00
19890;BME280;10107;51.198;6.824;2023-12-14T01:07:36;-21512.50;;;7.33;100.00
19890;BME280;10107;51.198;6.824;2023-12-14T01:11:38;-21512.50;;;7.33;100.00
19890;BME280;10107;51.198;6.824;2023-12-14T01:15:39;-21511.84;;;7.30;100.00
19890;BME280;10107;51.198;6.824;2023-12-14T01:19:42;-21511.56;;;7.29;100.00
19890;BME280;10107;51.198;6.824;2023-12-14T01:23:44;-21510.78;;;7.26;100.00
19890;BME280;10107;51.198;6.824;2023-12-14T01:27:46;-21509.56;;;7.22;100.00
19890;BME280;10107;51.198;6.824;2023-12-14T01:31:47;-21508.50;;;7.18;100.00
19890;BME280;10107;51.198;6.824;2023-12-14T01:35:50;-21508.50;;;7.18;100.00
19890;BME280;10107;51.198;6.824;2023-12-14T01:39:52;-21507.97;;;7.16;100.00
19890;BME280;10107;51.198;6.824;2023-12-14T01:43:54;-21506.66;;;7.10;100.00
19890;BME280;10107;51.198;6.824;2023-12-14T01:47:55;-21506.25;;;7.09;100.00
19890;BME280;10107;51.198;6.824;2023-12-14T01:51:58;-21504.78;;;7.03;100.00
19890;BME280;10107;51.198;6.824;2023-12-14T01:56:00;-21502.91;;;6.96;100.00
19890;BME280;10107;51.198;6.824;2023-12-14T02:00:01;-21502.00;;;6.92;100.00
19890;BME280;10107;51.198;6.824;2023-12-14T02:04:05;-21500.25;;;6.86;100.00
19890;BME280;10107;51.198;6.824;2023-12-14T02:08:09;-21498.53;;;6.79;100.00
19890;BME280;10107;51.198;6.824;2023-12-14T02:12:10;-21496.66;;;6.72;100.00
19890;BME280;10107;51.198;6.824;2023-12-14T02:16:12;-21495.06;;;6.66;100.00
19890;BME280;10107;51.198;6.824;2023-12-14T02:20:14;-21492.13;;;6.54;100.00
19890;BME280;10107;51.198;6.824;2023-12-14T02:24:17;-21490.78;;;6.49;100.00
19890;BME280;10107;51.198;6.824;2023-12-14T02:28:19;-21489.84;;;6.46;100.00
19890;BME280;10107;51.198;6.824;2023-12-14T02:32:20;-21489.19;;;6.43;100.00
19890;BME280;10107;51.198;6.824;2023-12-14T02:36:22;-21488.25;;;6.40;100.00
19890;BME280;10107;51.198;6.824;2023-12-14T02:40:25;-21488.41;;;6.40;100.00
19890;BME280;10107;51.198;6.824;2023-12-14T02:44:26;-21488.00;;;6.39;100.00
19890;BME280;10107;51.198;6.824;2023-12-14T02:48:30;-21486.53;;;6.33;100.00
19890;BME280;10107;51.198;6.824;2023-12-14T02:52:31;-21486.00;;;6.31;100.00
19890;BME280;10107;51.198;6.824;2023-12-14T02:56:34;-21486.53;;;6.33;100.00
19890;BME280;10107;51.198;6.824;2023-12-14T03:00:36;-21486.41;;;6.32;100.00
19890;BME280;10107;51.198;6.824;2023-12-14T03:04:38;-21485.72;;;6.30;100.00
19890;BME280;10107;51.198;6.824;2023-12-14T03:08:40;-21486.25;;;6.32;100.00
19890;BME280;10107;51.198;6.824;2023-12-14T03:12:43;-21485.47;;;6.29;100.00
19890;BME280;10107;51.198;6.824;2023-12-14T03:16:45;-21485.19;;;6.28;100.00
19890;BME280;10107;51.198;6.824;2023-12-14T03:20:47;-21484.00;;;6.23;100.00
19890;BME280;10107;51.198;6.824;2023-12-14T03:24:50;-21483.47;;;6.21;100.00
19890;BME280;10107;51.198;6.824;2023-12-14T03:28:53;-21481.19;;;6.12;100.00
19890;BME280;10107;51.198;6.824;2023-12-14T03:32:55;-21478.66;;;6.03;100.00
19890;BME280;10107;51.198;6.824;2023-12-14T03:36:58;-21477.19;;;5.97;100.00
19890;BME280;10107;51.198;6.824;2023-12-14T03:40:59;-21476.13;;;5.93;100.00
19890;BME280;10107;51.198;6.824;2023-12-14T03:45:03;-21476.13;;;5.93;100.00
19890;BME280;10107;51.198;6.824;2023-12-14T03:49:06;-21476.53;;;5.94;100.00
19890;BME280;10107;51.198;6.824;2023-12-14T03:53:07;-21477.31;;;5.98;100.00
19890;BME280;10107;51.198;6.824;2023-12-14T03:57:10;-21476.66;;;5.95;100.00
19890;BME280;10107;51.198;6.824;2023-12-14T04:01:17;-21476.13;;;5.93;100.00
19890;BME280;10107;51.198;6.824;2023-12-14T04:05:19;-21475.59;;;5.91;100.00
19890;BME280;10107;51.198;6.824;2023-12-14T04:09:21;-21474.53;;;5.87;100.00
19890;BME280;10107;51.198;6.824;2023-12-14T04:13:22;-21474.66;;;5.87;100.00
19890;BME280;10107;51.198;6.824;2023-12-14T04:17:25;-21474.38;;;5.86;100.00
19890;BME280;10107;51.198;6.824;2023-12-14T04:21:27;-21473.44;;;5.83;100.00
19890;BME280;10107;51.198;6.824;2023-12-14T04:25:28;-21471.84;;;5.77;100.00
19890;BME280;10107;51.198;6.824;2023-12-14T04:29:31;-21471.06;;;5.73;100.00
19890;BME280;10107;51.198;6.824;2023-12-14T04:33:59;-21471.19;;;5.74;100.00
19890;BME280;10107;51.198;6.824;2023-12-14T04:38:00;-21471.31;;;5.74;100.00
19890;BME280;10107;51.198;6.824;2023-12-14T04:42:03;-21470.38;;;5.71;100.00
19890;BME280;10107;51.198;6.824;2023-12-14T04:46:08;-21469.03;;;5.66;100.00
19890;BME280;10107;51.198;6.824;2023-12-14T04:50:11;-21467.56;;;5.60;100.00
19890;BME280;10107;51.198;6.824;2023-12-14T04:54:12;-21468.13;;;5.62;100.00
19890;BME280;10107;51.198;6.824;2023-12-14T04:58:15;-21469.19;;;5.66;100.00
19890;BME280;10107;51.198;6.824;2023-12-14T05:02:16;-21467.97;;;5.62;100.00
19890;BME280;10107;51.198;6.824;2023-12-14T05:06:19;-21468.25;;;5.63;100.00
19890;BME280;10107;51.198;6.824;2023-12-14T05:10:21;-21468.66;;;5.64;100.00
19890;BME280;10107;51.198;6.824;2023-12-14T05:14:23;-21468.91;;;5.65;100.00
19890;BME280;10107;51.198;6.824;2023-12-14T05:18:25;-21467.84;;;5.61;100.00
19890;BME280;10107;51.198;6.824;2023-12-14T05:22:28;-21468.25;;;5.63;100.00
19890;BME280;10107;51.198;6.824;2023-12-14T05:26:30;-21466.25;;;5.55;100.00
19890;BME280;10107;51.198;6.824;2023-12-14T05:30:31;-21466.25;;;5.55;100.00
19890;BME280;10107;51.198;6.824;2023-12-14T05:34:34;-21466.78;;;5.57;100.00
19890;BME280;10107;51.198;6.824;2023-12-14T05:38:38;-21466.78;;;5.57;100.00
19890;BME280;10107;51.198;6.824;2023-12-14T05:42:39;-21465.84;;;5.53;100.00
19890;BME280;10107;51.198;6.824;2023-12-14T05:46:41;-21463.84;;;5.46;100.00
19890;BME280;10107;51.198;6.824;2023-12-14T05:50:43;-21463.03;;;5.43;100.00
19890;BME280;10107;51.198;6.824;2023-12-14T05:54:46;-21464.63;;;5.49;100.00
19890;BME280;10107;51.198;6.824;2023-12-14T05:58:48;-21464.50;;;5.48;100.00
19890;BME280;10107;51.198;6.824;2023-12-14T06:02:49;-21464.63;;;5.49;100.00
19890;BME280;10107;51.198;6.824;2023-12-14T06:06:51;-21464.78;;;5.49;100.00
19890;BME280;10107;51.198;6.824;2023-12-14T06:10:54;-21465.19;;;5.51;100.00
19890;BME280;10107;51.198;6.824;2023-12-14T06:14:55;-21463.97;;;5.46;100.00
19890;BME280;10107;51.198;6.824;2023-12-14T06:18:57;-21464.50;;;5.48;100.00
19890;BME280;10107;51.198;6.824;2023-12-14T06:22:59;-21465.19;;;5.51;100.00
19890;BME280;10107;51.198;6.824;2023-12-14T06:27:02;-21465.19;;;5.51;100.00
19890;BME280;10107;51.198;6.824;2023-12-14T06:31:04;-21465.44;;;5.52;100.00
19890;BME280;10107;51.198;6.824;2023-12-14T06:35:06;-21465.31;;;5.51;100.00
19890;BME280;10107;51.198;6.824;2023-12-14T06:39:08;-21463.84;;;5.46;100.00
19890;BME280;10107;51.198;6.824;2023-12-14T06:43:11;-21463.03;;;5.43;100.00
19890;BME280;10107;51.198;6.824;2023-12-14T06:47:12;-21461.97;;;5.39;100.00
19890;BME280;10107;51.198;6.824;2023-12-14T06:51:15;-21462.50;;;5.41;100.00
19890;BME280;10107;51.198;6.824;2023-12-14T06:55:16;-21462.66;;;5.41;100.00
19890;BME280;10107;51.198;6.824;2023-12-14T06:59:19;-21463.03;;;5.43;100.00
19890;BME280;10107;51.198;6.824;2023-12-14T07:03:21;-21462.09;;;5.39;100.00
19890;BME280;10107;51.198;6.824;2023-12-14T07:07:22;-21461.56;;;5.37;100.00
19890;BME280;10107;51.198;6.824;2023-12-14T07:11:25;-21461.03;;;5.35;100.00
19890;BME280;10107;51.198;6.824;2023-12-14T07:15:29;-21461.84;;;5.38;100.00
19890;BME280;10107;51.198;6.824;2023-12-14T07:19:30;-21461.97;;;5.39;100.00
19890;BME280;10107;51.198;6.824;2023-12-14T07:23:32;-21460.50;;;5.33;100.00
19890;BME280;10107;51.198;6.824;2023-12-14T07:27:34;-21460.25;;;5.32;100.00
19890;BME280;10107;51.198;6.824;2023-12-14T07:31:37;-21461.19;;;5.35;100.00
19890;BME280;10107;51.198;6.824;2023-12-14T07:35:39;-21461.31;;;5.36;100.00
19890;BME280;10107;51.198;6.824;2023-12-14T07:39:40;-21460.50;;;5.33;100.00
19890;BME280;10107;51.198;6.824;2023-12-14T07:43:42;-21459.84;;;5.30;100.00
19890;BME280;10107;51.198;6.824;2023-12-14T07:47:45;-21459.84;;;5.30;100.00
19890;BME280;10107;51.198;6.824;2023-12-14T07:51:47;-21459.56;;;5.29;100.00
19890;BME280;10107;51.198;6.824;2023-12-14T07:55:48;-21459.69;;;5.30;100.00
19890;BME280;10107;51.198;6.824;2023-12-14T08:00:16;-21459.03;;;5.27;100.00
19890;BME280;10107;51.198;6.824;2023-12-14T08:04:19;-21457.16;;;5.20;100.00
19890;BME280;10107;51.198;6.824;2023-12-14T08:08:20;-21457.97;;;5.23;100.00
19890;BME280;10107;51.198;6.824;2023-12-14T08:12:22;-21457.44;;;5.21;100.00
19890;BME280;10107;51.198;6.824;2023-12-14T08:16:24;-21457.69;;;5.22;100.00
19890;BME280;10107;51.198;6.824;2023-12-14T08:20:27;-21457.97;;;5.23;100.00
19890;BME280;10107;51.198;6.824;2023-12-14T08:24:29;-21458.09;;;5.24;100.00
19890;BME280;10107;51.198;6.824;2023-12-14T08:28:30;-21457.69;;;5.22;100.00
19890;BME280;10107;51.198;6.824;2023-12-14T08:32:32;-21458.38;;;5.25;100.00
19890;BME280;10107;51.198;6.824;2023-12-14T08:36:35;-21457.56;;;5.22;100.00
19890;BME280;10107;51.198;6.824;2023-12-14T08:40:36;-21457.69;;;5.22;100.00
19890;BME280;10107;51.198;6.824;2023-12-14T08:44:38;-21457.69;;;5.22;100.00
19890;BME280;10107;51.198;6.824;2023-12-14T08:48:40;-21457.69;;;5.22;100.00
19890;BME280;10107;51.198;6.824;2023-12-14T08:52:43;-21457.97;;;5.23;100.00
19890;BME280;10107;51.198;6.824;2023-12-14T08:56:46;-21457.84;;;5.23;100.00
19890;BME280;10107;51.198;6.824;2023-12-14T09:00:48;-21457.03;;;5.20;100.00
19890;BME280;10107;51.198;6.824;2023-12-14T09:04:53;-21456.91;;;5.19;100.00
19890;BME280;10107;51.198;6.824;2023-12-14T09:08:56;-21455.84;;;5.15;100.00
19890;BME280;10107;51.198;6.824;2023-12-14T09:12:59;-21454.63;;;5.10;100.00
19890;BME280;10107;51.198;6.824;2023-12-14T09:17:04;-21454.75;;;5.11;100.00
19890;BME280;10107;51.198;6.824;2023-12-14T09:21:06;-21455.28;;;5.13;100.00
19890;BME280;10107;51.198;6.824;2023-12-14T09:25:09;-21454.91;;;5.11;100.00
19890;BME280;10107;51.198;6.824;2023-12-14T09:29:11;-21454.09;;;5.08;100.00
19890;BME280;10107;51.198;6.824;2023-12-14T09:33:13;-21454.63;;;5.10;100.00
19890;BME280;10107;51.198;6.824;2023-12-14T09:37:14;-21455.16;;;5.12;100.00
19890;BME280;10107;51.198;6.824;2023-12-14T09:41:17;-21454.91;;;5.11;100.00
19890;BME280;10107;51.198;6.824;2023-12-14T09:45:20;-21456.63;;;5.18;100.00
19890;BME280;10107;51.198;6.824;2023-12-14T09:49:25;-21457.31;;;5.21;100.00
19890;BME280;10107;51.198;6.824;2023-12-14T09:53:29;-21457.44;;;5.21;100.00
19890;BME280;10107;51.198;6.824;2023-12-14T09:57:32;-21457.44;;;5.21;100.00
19890;BME280;10107;51.198;6.824;2023-12-14T10:01:34;-21456.75;;;5.19;100.00
19890;BME280;10107;51.198;6.824;2023-12-14T10:05:35;-21456.09;;;5.16;100.00
19890;BME280;10107;51.198;6.824;2023-12-14T10:09:37;-21456.50;;;5.18;100.00
19890;BME280;10107;51.198;6.824;2023-12-14T10:13:41;-21456.91;;;5.19;100.00
19890;BME280;10107;51.198;6.824;2023-12-14T10:17:43;-21457.31;;;5.21;100.00
19890;BME280;10107;51.198;6.824;2023-12-14T10:21:50;-21459.44;;;5.29;100.00
19890;BME280;10107;51.198;6.824;2023-12-14T10:25:52;-21461.44;;;5.36;100.00
19890;BME280;10107;51.198;6.824;2023-12-14T10:29:56;-21461.56;;;5.37;100.00
19890;BME280;10107;51.198;6.824;2023-12-14T10:34:00;-21461.03;;;5.35;100.00
19890;BME280;10107;51.198;6.824;2023-12-14T10:38:03;-21461.44;;;5.36;100.00
19890;BME280;10107;51.198;6.824;2023-12-14T10:42:05;-21460.38;;;5.32;100.00
19890;BME280;10107;51.198;6.824;2023-12-14T10:46:10;-21459.16;;;5.28;100.00
19890;BME280;10107;51.198;6.824;2023-12-14T10:50:13;-21459.44;;;5.29;100.00
19890;BME280;10107;51.198;6.824;2023-12-14T10:54:15;-21459.03;;;5.27;100.00
19890;BME280;10107;51.198;6.824;2023-12-14T10:58:19;-21459.69;;;5.30;100.00
19890;BME280;10107;51.198;6.824;2023-12-14T11:02:22;-21457.97;;;5.23;100.00
19890;BME280;10107;51.198;6.824;2023-12-14T11:06:32;-21455.16;;;5.12;100.00
19890;BME280;10107;51.198;6.824;2023-12-14T11:10:37;-21454.91;;;5.11;100.00
19890;BME280;10107;51.198;6.824;2023-12-14T11:14:39;-21456.09;;;5.16;100.00
19890;BME280;10107;51.198;6.824;2023-12-14T11:18:42;-21456.50;;;5.18;100.00
19890;BME280;10107;51.198;6.824;2023-12-14T11:22:44;-21459.44;;;5.29;100.00
19890;BME280;10107;51.198;6.824;2023-12-14T11:26:46;-21459.84;;;5.30;100.00
19890;BME280;10107;51.198;6.824;2023-12-14T11:30:47;-21459.44;;;5.29;100.00
19890;BME280;10107;51.198;6.824;2023-12-14T11:34:50;-21460.78;;;5.34;100.00
19890;BME280;10107;51.198;6.824;2023-12-14T11:38:52;-21463.56;;;5.45;100.00
19890;BME280;10107;51.198;6.824;2023-12-14T11:42:58;-21467.31;;;5.59;100.00
19890;BME280;10107;51.198;6.824;2023-12-14T11:47:00;-21471.06;;;5.73;100.00
19890;BME280;10107;51.198;6.824;2023-12-14T11:51:03;-21473.84;;;5.84;100.00
19890;BME280;10107;51.198;6.824;2023-12-14T11:55:05;-21471.72;;;5.76;100.00
19890;BME280;10107;51.198;6.824;2023-12-14T11:59:10;-21467.84;;;5.61;100.00
19890;BME280;10107;51.198;6.824;2023-12-14T12:03:14;-21467.19;;;5.59;100.00
19890;BME280;10107;51.198;6.824;2023-12-14T12:07:17;-21466.91;;;5.58;100.00
19890;BME280;10107;51.198;6.824;2023-12-14T12:11:20;-21466.25;;;5.55;100.00
19890;BME280;10107;51.198;6.824;2023-12-14T12:15:22;-21464.91;;;5.50;100.00
19890;BME280;10107;51.198;6.824;2023-12-14T12:19:23;-21465.19;;;5.51;100.00
19890;BME280;10107;51.198;6.824;2023-12-14T12:23:26;-21464.25;;;5.47;100.00
19890;BME280;10107;51.198;6.824;2023-12-14T12:27:29;-21463.31;;;5.44;100.00
19890;BME280;10107;51.198;6.824;2023-12-14T12:31:31;-21464.25;;;5.47;100.00
19890;BME280;10107;51.198;6.824;2023-12-14T12:35:33;-21465.97;;;5.54;100.00
19890;BME280;10107;51.198;6.824;2023-12-14T12:39:36;-21468.38;;;5.63;100.00
19890;BME280;10107;51.198;6.824;2023-12-14T12:43:39;-21470.50;;;5.71;100.00
19890;BME280;10107;51.198;6.824;2023-12-14T12:47:41;-21468.38;;;5.63;100.00
19890;BME280;10107;51.198;6.824;2023-12-14T12:51:42;-21468.25;;;5.63;100.00
19890;BME280;10107;51.198;6.824;2023-12-14T12:55:45;-21468.13;;;5.62;100.00
19890;BME280;10107;51.198;6.824;2023-12-14T12:59:47;-21467.97;;;5.62;100.00
19890;BME280;10107;51.198;6.824;2023-12-14T13:03:52;-21467.03;;;5.58;100.00
19890;BME280;10107;51.198;6.824;2023-12-14T13:07:54;-21467.44;;;5.60;100.00
19890;BME280;10107;51.198;6.824;2023-12-14T13:11:59;-21467.84;;;5.61;100.00
19890;BME280;10107;51.198;6.824;2023-12-14T13:16:00;-21467.03;;;5.58;100.00
19890;BME280;10107;51.198;6.824;2023-12-14T13:20:02;-21463.84;;;5.46;100.00
19890;BME280;10107;51.198;6.824;2023-12-14T13:24:07;-21462.38;;;5.40;100.00
19890;BME280;10107;51.198;6.824;2023-12-14T13:28:10;-21460.09;;;5.31;100.00
19890;BME280;10107;51.198;6.824;2023-12-14T13:32:12;-21456.91;;;5.19;100.00
19890;BME280;10107;51.198;6.824;2023-12-14T13:36:14;-21455.28;;;5.13;100.00
19890;BME280;10107;51.198;6.824;2023-12-14T13:40:16;-21453.97;;;5.08;100.00
19890;BME280;10107;51.198;6.824;2023-12-14T13:44:20;-21452.22;;;5.01;100.00
19890;BME280;10107;51.198;6.824;2023-12-14T13:48:21;-21451.28;;;4.97;100.00
19890;BME280;10107;51.198;6.824;2023-12-14T13:52:24;-21449.16;;;4.89;100.00
19890;BME280;10107;51.198;6.824;2023-12-14T13:56:28;-21449.56;;;4.91;100.00
19890;BME280;10107;51.198;6.824;2023-12-14T14:00:31;-21447.94;;;4.85;100.00
19890;BME280;10107;51.198;6.824;2023-12-14T14:04:36;-21447.16;;;4.82;100.00
19890;BME280;10107;51.198;6.824;2023-12-14T14:08:37;-21445.28;;;4.74;100.00
19890;BME280;10107;51.198;6.824;2023-12-14T14:12:39;-21445.41;;;4.75;100.00
19890;BME280;10107;51.198;6.824;2023-12-14T14:16:42;-21445.13;;;4.74;100.00
19890;BME280;10107;51.198;6.824;2023-12-14T14:20:44;-21446.47;;;4.79;100.00
19890;BME280;10107;51.198;6.824;2023-12-14T14:24:45;-21446.22;;;4.78;100.00
19890;BME280;10107;51.198;6.824;2023-12-14T14:28:47;-21445.13;;;4.74;100.00
19890;BME280;10107;51.198;6.824;2023-12-14T14:32:50;-21444.88;;;4.73;100.00
19890;BME280;10107;51.198;6.824;2023-12-14T14:36:52;-21444.59;;;4.72;100.00
19890;BME280;10107;51.198;6.824;2023-12-14T14:40:53;-21445.00;;;4.73;100.00
19890;BME280;10107;51.198;6.824;2023-12-14T14:44:55;-21443.69;;;4.68;100.00
19890;BME280;10107;51.198;6.824;2023-12-14T14:48:58;-21442.75;;;4.65;100.00
19890;BME280;10107;51.198;6.824;2023-12-14T14:53:01;-21442.75;;;4.65;100.00
19890;BME280;10107;51.198;6.824;2023-12-14T14:57:05;-21442.34;;;4.63;100.00
19890;BME280;10107;51.198;6.824;2023-12-14T15:01:07;-21442.75;;;4.65;100.00
19890;BME280;10107;51.198;6.824;2023-12-14T15:05:11;-21441.66;;;4.61;100.00
19890;BME280;10107;51.198;6.824;2023-12-14T15:09:13;-21440.88;;;4.57;100.00
19890;BME280;10107;51.198;6.824;2023-12-14T15:13:14;-21440.88;;;4.57;100.00
19890;BME280;10107;51.198;6.824;2023-12-14T15:17:17;-21440.47;;;4.56;100.00
19890;BME280;10107;51.198;6.824;2023-12-14T15:21:20;-21440.59;;;4.56;100.00
19890;BME280;10107;51.198;6.824;2023-12-14T15:25:22;-21440.59;;;4.56;100.00
19890;BME280;10107;51.198;6.824;2023-12-14T15:29:24;-21439.66;;;4.53;100.00
19890;BME280;10107;51.198;6.824;2023-12-14T15:33:25;-21439.66;;;4.53;100.00
19890;BME280;10107;51.198;6.824;2023-12-14T15:37:28;-21439.66;;;4.53;100.00
19890;BME280;10107;51.198;6.824;2023-12-14T15:41:30;-21439.25;;;4.51;100.00
19890;BME280;10107;51.198;6.824;2023-12-14T15:45:32;-21439.00;;;4.50;100.00
19890;BME280;10107;51.198;6.824;2023-12-14T15:49:34;-21438.47;;;4.48;100.00
19890;BME280;10107;51.198;6.824;2023-12-14T15:53:37;-21437.78;;;4.46;100.00
19890;BME280;10107;51.198;6.824;2023-12-14T15:57:39;-21438.06;;;4.47;100.00
19890;BME280;10107;51.198;6.824;2023-12-14T16:01:41;-21438.72;;;4.49;100.00
19890;BME280;10107;51.198;6.824;2023-12-14T16:05:43;-21439.00;;;4.50;100.00
19890;BME280;10107;51.198;6.824;2023-12-14T16:09:46;-21440.06;;;4.54;100.00
19890;BME280;10107;51.198;6.824;2023-12-14T16:13:48;-21439.94;;;4.54;100.00
19890;BME280;10107;51.198;6.824;2023-12-14T16:17:52;-21440.06;;;4.54;100.00
19890;BME280;10107;51.198;6.824;2023-12-14T16:21:54;-21439.94;;;4.54;100.00
19890;BME280;10107;51.198;6.824;2023-12-14T16:25:57;-21439.66;;;4.53;100.00
19890;BME280;10107;51.198;6.824;2023-12-14T16:29:59;-21438.72;;;4.49;100.00
19890;BME280;10107;51.198;6.824;2023-12-14T16:34:01;-21439.00;;;4.50;100.00
19890;BME280;10107;51.198;6.824;2023-12-14T16:38:02;-21438.19;;;4.47;100.00
19890;BME280;10107;51.198;6.824;2023-12-14T16:42:06;-21438.31;;;4.48;100.00
19890;BME280;10107;51.198;6.824;2023-12-14T16:46:08;-21437.53;;;4.45;100.00
19890;BME280;10107;51.198;6.824;2023-12-14T16:50:10;-21437.00;;;4.43;100.00
19890;BME280;10107;51.198;6.824;2023-12-14T16:54:12;-21436.84;;;4.42;100.00
19890;BME280;10107;51.198;6.824;2023-12-14T16:58:15;-21436.59;;;4.41;100.00
19890;BME280;10107;51.198;6.824;2023-12-14T17:02:16;-21436.59;;;4.41;100.00
19890;BME280;10107;51.198;6.824;2023-12-14T17:06:18;-21436.31;;;4.40;100.00
19890;BME280;10107;51.198;6.824;2023-12-14T17:10:20;-21436.44;;;4.41;100.00
19890;BME280;10107;51.198;6.824;2023-12-14T17:14:23;-21435.53;;;4.37;100.00
19890;BME280;10107;51.198;6.824;2023-12-14T17:18:25;-21435.53;;;4.37;100.00
19890;BME280;10107;51.198;6.824;2023-12-14T17:22:28;-21436.19;;;4.40;100.00
19890;BME280;10107;51.198;6.824;2023-12-14T17:26:33;-21435.38;;;4.36;100.00
19890;BME280;10107;51.198;6.824;2023-12-14T17:30:36;-21434.31;;;4.32;100.00
19890;BME280;10107;51.198;6.824;2023-12-14T17:34:38;-21432.44;;;4.25;100.00
19890;BME280;10107;51.198;6.824;2023-12-14T17:38:41;-21430.16;;;4.16;100.00
19890;BME280;10107;51.198;6.824;2023-12-14T17:42:43;-21427.63;;;4.07;100.00
19890;BME280;10107;51.198;6.824;2023-12-14T17:46:48;-21425.50;;;3.99;100.00
19890;BME280;10107;51.198;6.824;2023-12-14T17:50:49;-21422.94;;;3.89;100.00
19890;BME280;10107;51.198;6.824;2023-12-14T17:54:52;-21418.66;;;3.72;100.00
19890;BME280;10107;51.198;6.824;2023-12-14T17:58:54;-21415.06;;;3.59;100.00
19890;BME280;10107;51.198;6.824;2023-12-14T18:02:57;-21411.31;;;3.44;100.00
19890;BME280;10107;51.198;6.824;2023-12-14T18:06:59;-21408.63;;;3.34;100.00
19890;BME280;10107;51.198;6.824;2023-12-14T18:11:01;-21406.22;;;3.25;100.00
19890;BME280;10107;51.198;6.824;2023-12-14T18:15:04;-21404.34;;;3.17;100.00
19890;BME280;10107;51.198;6.824;2023-12-14T18:19:08;-21402.34;;;3.10;100.00
19890;BME280;10107;51.198;6.824;2023-12-14T18:23:10;-21399.25;;;2.98;100.00
19890;BME280;10107;51.198;6.824;2023-12-14T18:27:12;-21397.25;;;2.90;100.00
19890;BME280;10107;51.198;6.824;2023-12-14T18:31:14;-21396.31;;;2.87;100.00
19890;BME280;10107;51.198;6.824;2023-12-14T18:35:17;-21396.03;;;2.86;100.00
19890;BME280;10107;51.198;6.824;2023-12-14T18:39:18;-21396.03;;;2.86;100.00
19890;BME280;10107;51.198;6.824;2023-12-14T18:43:20;-21393.91;;;2.77;100.00
19890;BME280;10107;51.198;6.824;2023-12-14T18:47:21;-21391.63;;;2.69;100.00
19890;BME280;10107;51.198;6.824;2023-12-14T18:51:24;-21389.72;;;2.62;100.00
19890;BME280;10107;51.198;6.824;2023-12-14T18:55:26;-21390.66;;;2.65;100.00
19890;BME280;10107;51.198;6.824;2023-12-14T18:59:28;-21392.41;;;2.72;100.00
19890;BME280;10107;51.198;6.824;2023-12-14T19:03:29;-21395.63;;;2.84;100.00
19890;BME280;10107;51.198;6.824;2023-12-14T19:07:32;-21398.44;;;2.95;100.00
19890;BME280;10107;51.198;6.824;2023-12-14T19:11:36;-21401.00;;;3.05;100.00
19890;BME280;10107;51.198;6.824;2023-12-14T19:16:02;-21403.41;;;3.14;100.00
19890;BME280;10107;51.198;6.824;2023-12-14T19:20:07;-21405.28;;;3.21;100.00
19890;BME280;10107;51.198;6.824;2023-12-14T19:24:10;-21405.00;;;3.20;100.00
19890;BME280;10107;51.198;6.824;2023-12-14T19:28:13;-21403.94;;;3.16;100.00
19890;BME280;10107;51.198;6.824;2023-12-14T19:32:14;-21403.28;;;3.13;100.00
19890;BME280;10107;51.198;6.824;2023-12-14T19:36:41;-21402.59;;;3.11;100.00
19890;BME280;10107;51.198;6.824;2023-12-14T19:40:44;-21402.72;;;3.11;100.00
19890;BME280;10107;51.198;6.824;2023-12-14T19:44:45;-21404.75;;;3.19;100.00
19890;BME280;10107;51.198;6.824;2023-12-14T19:48:47;-21407.03;;;3.28;100.00
19890;BME280;10107;51.198;6.824;2023-12-14T19:53:14;-21409.44;;;3.37;100.00
19890;BME280;10107;51.198;6.824;2023-12-14T19:57:18;-21411.16;;;3.44;100.00
19890;BME280;10107;51.198;6.824;2023-12-14T20:01:21;-21412.91;;;3.50;100.00
19890;BME280;10107;51.198;6.824;2023-12-14T20:05:22;-21414.25;;;3.55;100.00
19890;BME280;10107;51.198;6.824;2023-12-14T20:09:27;-21416.00;;;3.62;100.00
19890;BME280;10107;51.198;6.824;2023-12-14T20:13:30;-21417.47;;;3.68;100.00
19890;BME280;10107;51.198;6.824;2023-12-14T20:17:32;-21417.84;;;3.69;100.00
19890;BME280;10107;51.198;6.824;2023-12-14T20:21:35;-21418.00;;;3.70;100.00
19890;BME280;10107;51.198;6.824;2023-12-14T20:25:38;-21418.53;;;3.72;100.00
19890;BME280;10107;51.198;6.824;2023-12-14T20:29:41;-21420.41;;;3.79;100.00
19890;BME280;10107;51.198;6.824;2023-12-14T20:33:44;-21421.63;;;3.84;100.00
19890;BME280;10107;51.198;6.824;2023-12-14T20:37:45;-21422.81;;;3.88;100.00
19890;BME280;10107;51.198;6.824;2023-12-14T20:41:47;-21424.69;;;3.95;100.00
19890;BME280;10107;51.198;6.824;2023-12-14T20:45:50;-21425.75;;;4.00;100.00
19890;BME280;10107;51.198;6.824;2023-12-14T20:49:52;-21425.75;;;4.00;100.00
19890;BME280;10107;51.198;6.824;2023-12-14T20:53:53;-21425.75;;;4.00;100.00
19890;BME280;10107;51.198;6.824;2023-12-14T20:57:56;-21426.56;;;4.03;100.00
19890;BME280;10107;51.198;6.824;2023-12-14T21:01:59;-21426.56;;;4.03;100.00
19890;BME280;10107;51.198;6.824;2023-12-14T21:06:01;-21427.75;;;4.07;100.00
19890;BME280;10107;51.198;6.824;2023-12-14T21:10:04;-21427.22;;;4.05;100.00